Time;durP1;ratioP1;P1;durP2;ratioP2;P2;SDS_P1;SDS_P2;PMS_P1;PMS_P2;Temp;Humidity;BMP_temperature;BMP_pressure;BME280_temperature;BME280_humidity;BME280_pressure;Samples;Min_cycle;Max_cycle;Signal;HPM_P1;HPM_P2
2023/09/20 00:01:50;;;;;;;11.90;3.38;;;;;;;;;;5065053;28;20056;-65
2023/09/20 00:04:17;;;;;;;16.30;2.92;;;;;;;;;;5082325;28;20507;-65
2023/09/20 00:06:46;;;;;;;12.90;3.00;;;;;;;;;;5087823;28;20055;-65
2023/09/20 00:09:15;;;;;;;11.18;2.60;;;;;;;;;;5080211;28;20082;-65
2023/09/20 00:11:45;;;;;;;18.23;2.70;;;;;;;;;;5086819;28;20052;-65
2023/09/20 00:14:12;;;;;;;12.68;2.60;;;;;;;;;;5083104;28;20495;-65
2023/09/20 00:16:40;;;;;;;18.02;2.78;;;;;;;;;;5091860;28;20503;-65
2023/09/20 00:19:08;;;;;;;11.95;2.83;;;;;;;;;;5089960;28;20036;-65
2023/09/20 00:21:35;;;;;;;20.00;2.65;;;;;;;;;;5075417;28;20139;-65
2023/09/20 00:24:05;;;;;;;7.97;2.88;;;;;;;;;;5092832;28;20101;-65
2023/09/20 00:26:33;;;;;;;12.13;3.03;;;;;;;;;;5093299;28;20086;-65
2023/09/20 00:29:04;;;;;;;13.80;2.95;;;;;;;;;;5094309;28;20040;-65
2023/09/20 00:31:32;;;;;;;19.17;3.03;;;;;;;;;;5073277;28;20373;-65
2023/09/20 00:34:00;;;;;;;19.80;3.45;;;;;;;;;;5088566;28;20056;-65
2023/09/20 00:36:28;;;;;;;12.77;3.15;;;;;;;;;;5081494;28;20152;-65
2023/09/20 00:38:57;;;;;;;13.45;2.83;;;;;;;;;;5089686;28;20511;-65
2023/09/20 00:41:26;;;;;;;15.10;2.60;;;;;;;;;;5086219;28;20070;-65
2023/09/20 00:43:54;;;;;;;20.20;3.33;;;;;;;;;;5086685;28;20382;-65
2023/09/20 00:46:21;;;;;;;19.55;2.83;;;;;;;;;;5088795;28;20051;-64
2023/09/20 00:48:53;;;;;;;13.55;2.25;;;;;;;;;;5087434;28;20063;-65
2023/09/20 00:51:22;;;;;;;19.08;2.67;;;;;;;;;;5090519;28;20045;-65
2023/09/20 00:53:49;;;;;;;16.20;2.47;;;;;;;;;;5085425;28;20394;-64
2023/09/20 00:56:16;;;;;;;11.05;1.92;;;;;;;;;;5092246;28;20055;-65
2023/09/20 00:58:45;;;;;;;9.50;2.45;;;;;;;;;;5086458;28;20048;-65
2023/09/20 01:01:15;;;;;;;12.25;2.38;;;;;;;;;;5088789;28;20502;-65
2023/09/20 01:03:43;;;;;;;10.68;2.25;;;;;;;;;;5089637;28;20410;-65
2023/09/20 01:06:14;;;;;;;12.90;2.40;;;;;;;;;;5090312;28;20044;-65
2023/09/20 01:08:42;;;;;;;13.07;2.33;;;;;;;;;;5088874;28;20044;-65
2023/09/20 01:11:09;;;;;;;8.70;2.15;;;;;;;;;;5089297;28;20621;-65
2023/09/20 01:13:37;;;;;;;9.82;2.15;;;;;;;;;;5080514;28;20438;-65
2023/09/20 01:16:06;;;;;;;11.45;2.97;;;;;;;;;;5084240;28;20094;-65
2023/09/20 01:18:34;;;;;;;11.23;2.70;;;;;;;;;;5092612;28;20051;-65
2023/09/20 01:21:02;;;;;;;14.73;2.60;;;;;;;;;;5085047;28;20129;-65
2023/09/20 01:23:32;;;;;;;11.13;2.47;;;;;;;;;;5087698;28;20040;-65
2023/09/20 01:26:00;;;;;;;18.63;2.97;;;;;;;;;;5089275;28;20127;-65
2023/09/20 01:28:28;;;;;;;10.38;2.90;;;;;;;;;;5093026;28;20044;-65
2023/09/20 01:30:58;;;;;;;10.32;2.67;;;;;;;;;;5087638;28;20047;-65
2023/09/20 01:33:26;;;;;;;14.35;3.15;;;;;;;;;;5092785;28;20055;-65
2023/09/20 01:35:54;;;;;;;14.77;3.30;;;;;;;;;;5085807;28;20557;-65
2023/09/20 01:38:21;;;;;;;12.48;3.00;;;;;;;;;;5087325;28;20044;-65
2023/09/20 01:40:50;;;;;;;11.60;2.90;;;;;;;;;;5088609;28;20048;-65
2023/09/20 01:43:18;;;;;;;18.48;3.28;;;;;;;;;;5087385;28;20055;-65
2023/09/20 01:45:45;;;;;;;17.58;3.30;;;;;;;;;;5085561;28;20063;-65
2023/09/20 01:48:13;;;;;;;15.23;2.90;;;;;;;;;;5086159;28;20509;-65
2023/09/20 01:50:42;;;;;;;12.73;2.78;;;;;;;;;;5089087;28;20082;-65
2023/09/20 01:53:10;;;;;;;17.05;2.85;;;;;;;;;;5089532;28;20437;-65
2023/09/20 01:55:42;;;;;;;10.70;2.67;;;;;;;;;;5076796;28;20055;-65
2023/09/20 01:58:12;;;;;;;11.77;3.10;;;;;;;;;;5070531;28;20056;-65
2023/09/20 02:00:40;;;;;;;13.50;2.42;;;;;;;;;;5070631;28;20060;-65
2023/09/20 02:03:09;;;;;;;12.43;2.78;;;;;;;;;;5086940;28;20451;-65
2023/09/20 02:05:37;;;;;;;19.80;4.43;;;;;;;;;;5089901;28;20514;-64
2023/09/20 02:08:05;;;;;;;14.15;3.00;;;;;;;;;;5083664;28;20047;-65
2023/09/20 02:10:33;;;;;;;13.43;2.85;;;;;;;;;;5080716;28;20147;-65
2023/09/20 02:13:00;;;;;;;14.38;3.17;;;;;;;;;;5090324;28;20383;-65
2023/09/20 02:15:31;;;;;;;14.73;3.10;;;;;;;;;;5089780;28;20054;-65
2023/09/20 02:17:59;;;;;;;13.43;2.85;;;;;;;;;;5068428;28;20117;-65
2023/09/20 02:20:27;;;;;;;7.82;2.53;;;;;;;;;;5082152;28;20048;-65
2023/09/20 02:22:57;;;;;;;14.65;3.28;;;;;;;;;;5086026;28;20071;-65
2023/09/20 02:25:26;;;;;;;12.02;2.78;;;;;;;;;;5083356;28;20063;-65
2023/09/20 02:27:54;;;;;;;12.55;2.30;;;;;;;;;;5083646;28;20062;-64
2023/09/20 02:30:24;;;;;;;20.15;2.90;;;;;;;;;;5085684;28;20114;-65
2023/09/20 02:32:57;;;;;;;11.60;2.25;;;;;;;;;;5083455;28;20123;-65
2023/09/20 02:35:25;;;;;;;11.38;2.70;;;;;;;;;;5087008;28;20488;-65
2023/09/20 02:37:53;;;;;;;16.08;1.80;;;;;;;;;;5087239;28;20048;-65
2023/09/20 02:40:23;;;;;;;16.33;2.20;;;;;;;;;;5085682;28;20091;-65
2023/09/20 02:42:52;;;;;;;14.60;1.90;;;;;;;;;;5087070;28;20051;-65
2023/09/20 02:45:20;;;;;;;15.27;2.00;;;;;;;;;;5082277;28;20508;-65
2023/09/20 02:47:47;;;;;;;8.75;1.80;;;;;;;;;;5074797;28;20603;-65
2023/09/20 02:50:18;;;;;;;9.65;1.50;;;;;;;;;;5082881;28;20423;-65
2023/09/20 02:52:46;;;;;;;14.77;1.85;;;;;;;;;;5090080;28;20101;-65
2023/09/20 02:55:13;;;;;;;7.30;1.80;;;;;;;;;;5086333;28;20052;-65
2023/09/20 02:57:41;;;;;;;9.13;1.35;;;;;;;;;;5089379;28;20052;-65
2023/09/20 03:00:15;;;;;;;8.30;1.65;;;;;;;;;;5086254;28;20048;-65
2023/09/20 03:02:45;;;;;;;10.55;1.35;;;;;;;;;;5081972;28;20063;-65
2023/09/20 03:05:13;;;;;;;8.60;1.60;;;;;;;;;;5079008;28;20464;-65
2023/09/20 03:07:42;;;;;;;8.68;1.85;;;;;;;;;;5087895;28;20113;-65
2023/09/20 03:10:12;;;;;;;6.63;1.55;;;;;;;;;;5081379;28;20411;-65
2023/09/20 03:12:41;;;;;;;7.78;1.83;;;;;;;;;;5084132;28;20044;-65
2023/09/20 03:15:10;;;;;;;9.68;2.05;;;;;;;;;;5093651;28;20391;-65
2023/09/20 03:17:39;;;;;;;10.73;1.77;;;;;;;;;;5084170;28;20047;-65
2023/09/20 03:20:11;;;;;;;15.43;2.05;;;;;;;;;;5070684;28;20395;-65
2023/09/20 03:22:38;;;;;;;13.88;2.15;;;;;;;;;;5087170;28;20532;-65
2023/09/20 03:25:09;;;;;;;8.85;1.98;;;;;;;;;;5091440;28;20055;-65
2023/09/20 03:27:38;;;;;;;10.50;2.20;;;;;;;;;;5077531;28;20131;-65
2023/09/20 03:30:10;;;;;;;12.82;2.22;;;;;;;;;;5058489;28;20052;-64
2023/09/20 03:32:39;;;;;;;10.05;1.88;;;;;;;;;;5084492;28;20079;-67
2023/09/20 03:35:07;;;;;;;14.18;2.10;;;;;;;;;;5088003;28;20052;-67
2023/09/20 03:37:36;;;;;;;14.77;2.30;;;;;;;;;;5085165;28;20105;-65
2023/09/20 03:40:06;;;;;;;12.82;2.85;;;;;;;;;;5087382;28;20120;-65
2023/09/20 03:42:35;;;;;;;7.30;1.80;;;;;;;;;;5080482;28;20050;-65
2023/09/20 03:45:02;;;;;;;8.88;2.20;;;;;;;;;;5087988;28;20406;-65
2023/09/20 03:47:30;;;;;;;11.57;2.33;;;;;;;;;;5084192;28;20052;-65
2023/09/20 03:49:57;;;;;;;13.15;2.47;;;;;;;;;;5089602;28;20044;-65
2023/09/20 03:52:24;;;;;;;8.15;2.17;;;;;;;;;;5089541;28;20044;-65
2023/09/20 03:54:51;;;;;;;10.20;2.55;;;;;;;;;;5086328;28;20411;-64
2023/09/20 03:57:19;;;;;;;6.35;2.53;;;;;;;;;;5084130;28;20056;-65
2023/09/20 03:59:48;;;;;;;11.32;2.85;;;;;;;;;;5087011;28;20044;-65
2023/09/20 04:02:15;;;;;;;12.20;2.90;;;;;;;;;;5076533;28;20148;-64
2023/09/20 04:04:43;;;;;;;10.88;2.22;;;;;;;;;;5088248;28;20056;-64
2023/09/20 04:07:10;;;;;;;8.23;2.47;;;;;;;;;;5081584;28;20052;-64
2023/09/20 04:09:37;;;;;;;7.57;2.33;;;;;;;;;;5086163;28;20041;-64
2023/09/20 04:12:04;;;;;;;10.65;3.08;;;;;;;;;;5091411;28;20054;-64
2023/09/20 04:14:32;;;;;;;9.68;2.90;;;;;;;;;;5084683;28;20041;-65
2023/09/20 04:17:00;;;;;;;9.27;2.88;;;;;;;;;;5083178;28;20071;-65
2023/09/20 04:19:28;;;;;;;9.68;2.60;;;;;;;;;;5083532;28;20372;-65
2023/09/20 04:21:56;;;;;;;7.68;2.78;;;;;;;;;;5083613;28;20576;-65
2023/09/20 04:24:24;;;;;;;11.35;3.17;;;;;;;;;;5087484;28;20075;-65
2023/09/20 04:26:51;;;;;;;15.57;3.00;;;;;;;;;;5087755;28;20054;-65
2023/09/20 04:29:18;;;;;;;13.30;3.00;;;;;;;;;;5084973;28;20051;-65
2023/09/20 04:31:46;;;;;;;8.88;2.60;;;;;;;;;;5085791;28;20044;-65
2023/09/20 04:34:15;;;;;;;14.57;3.33;;;;;;;;;;5084802;28;20056;-64
2023/09/20 04:36:44;;;;;;;9.73;2.72;;;;;;;;;;5087390;28;20560;-65
2023/09/20 04:39:11;;;;;;;7.97;2.72;;;;;;;;;;5086599;28;20395;-65
2023/09/20 04:41:39;;;;;;;16.02;2.97;;;;;;;;;;5089287;28;20055;-65
2023/09/20 04:44:07;;;;;;;8.85;2.58;;;;;;;;;;5087061;28;20063;-64
2023/09/20 04:46:35;;;;;;;8.38;2.63;;;;;;;;;;5086763;28;20119;-65
2023/09/20 04:49:03;;;;;;;13.55;2.83;;;;;;;;;;5083201;28;20048;-65
2023/09/20 04:51:32;;;;;;;13.43;2.83;;;;;;;;;;5085217;28;20048;-65
2023/09/20 04:53:59;;;;;;;9.52;2.70;;;;;;;;;;5087159;28;20051;-64
2023/09/20 04:56:27;;;;;;;12.73;3.17;;;;;;;;;;5084746;28;20079;-65
2023/09/20 04:58:57;;;;;;;14.27;2.95;;;;;;;;;;5091948;28;20047;-65
2023/09/20 05:01:24;;;;;;;10.55;2.92;;;;;;;;;;5091731;28;20094;-65
2023/09/20 05:03:51;;;;;;;9.85;3.28;;;;;;;;;;5090606;28;20048;-65
2023/09/20 05:06:19;;;;;;;8.15;2.80;;;;;;;;;;5088854;28;20070;-65
2023/09/20 05:08:50;;;;;;;9.40;2.83;;;;;;;;;;5088098;28;20097;-65
2023/09/20 05:11:18;;;;;;;9.20;3.03;;;;;;;;;;5088723;28;20081;-65
2023/09/20 05:13:46;;;;;;;9.00;2.50;;;;;;;;;;5094580;28;20452;-65
2023/09/20 05:16:13;;;;;;;10.48;2.95;;;;;;;;;;5086615;28;20075;-65
2023/09/20 05:18:40;;;;;;;11.63;2.95;;;;;;;;;;5082466;28;20044;-65
2023/09/20 05:21:09;;;;;;;8.35;2.45;;;;;;;;;;5073935;28;20048;-65
2023/09/20 05:23:37;;;;;;;8.00;2.35;;;;;;;;;;5090025;28;20043;-65
2023/09/20 05:26:05;;;;;;;6.90;2.53;;;;;;;;;;5088771;28;20048;-65
2023/09/20 05:28:33;;;;;;;12.10;3.25;;;;;;;;;;5087945;28;20040;-66
2023/09/20 05:31:00;;;;;;;11.88;2.85;;;;;;;;;;5083320;28;20111;-65
2023/09/20 05:33:30;;;;;;;7.88;2.78;;;;;;;;;;5087360;28;20067;-66
2023/09/20 05:35:58;;;;;;;11.23;2.78;;;;;;;;;;5081729;28;20086;-64
2023/09/20 05:38:26;;;;;;;9.38;2.05;;;;;;;;;;5069644;28;20105;-64
2023/09/20 05:40:53;;;;;;;10.55;2.72;;;;;;;;;;5090216;28;20048;-65
2023/09/20 05:43:22;;;;;;;7.32;2.65;;;;;;;;;;5089153;28;20383;-65
2023/09/20 05:45:49;;;;;;;11.70;3.08;;;;;;;;;;5088836;28;20070;-65
2023/09/20 05:48:16;;;;;;;8.23;2.72;;;;;;;;;;5090525;28;20044;-65
2023/09/20 05:50:44;;;;;;;11.57;2.30;;;;;;;;;;5084496;28;20106;-65
2023/09/20 05:53:11;;;;;;;8.48;2.90;;;;;;;;;;5084220;28;20499;-65
2023/09/20 05:55:39;;;;;;;8.38;2.30;;;;;;;;;;5085061;28;20072;-65
2023/09/20 05:58:06;;;;;;;10.25;2.65;;;;;;;;;;5078866;28;20044;-65
2023/09/20 06:00:36;;;;;;;6.78;2.72;;;;;;;;;;5090853;28;20043;-65
2023/09/20 06:03:04;;;;;;;16.25;3.30;;;;;;;;;;5087944;28;20047;-65
2023/09/20 06:05:33;;;;;;;9.40;2.88;;;;;;;;;;5086201;28;20094;-65
2023/09/20 06:08:01;;;;;;;11.27;2.67;;;;;;;;;;5090368;28;20083;-65
2023/09/20 06:10:28;;;;;;;8.00;2.40;;;;;;;;;;5090860;28;20139;-65
2023/09/20 06:12:55;;;;;;;11.43;2.65;;;;;;;;;;5092030;28;20044;-65
2023/09/20 06:15:23;;;;;;;8.07;2.40;;;;;;;;;;5081845;28;20044;-65
2023/09/20 06:17:51;;;;;;;7.68;2.42;;;;;;;;;;5082687;28;20515;-65
2023/09/20 06:20:20;;;;;;;10.73;2.35;;;;;;;;;;5078693;28;20041;-65
2023/09/20 06:22:48;;;;;;;9.00;2.13;;;;;;;;;;5085499;28;20048;-65
2023/09/20 06:25:19;;;;;;;5.18;2.22;;;;;;;;;;5090324;28;20531;-65
2023/09/20 06:27:46;;;;;;;7.70;2.65;;;;;;;;;;5089268;28;20066;-65
2023/09/20 06:30:14;;;;;;;8.30;2.20;;;;;;;;;;5091716;28;20052;-66
2023/09/20 06:32:41;;;;;;;8.27;2.53;;;;;;;;;;5086854;28;20055;-65
2023/09/20 06:35:10;;;;;;;6.60;1.90;;;;;;;;;;5088794;28;20106;-65
2023/09/20 06:37:38;;;;;;;7.57;2.40;;;;;;;;;;5078398;28;20044;-65
2023/09/20 06:40:15;;;;;;;9.55;2.20;;;;;;;;;;5078948;28;20050;-65
2023/09/20 06:42:42;;;;;;;5.40;2.00;;;;;;;;;;5083249;28;20146;-65
2023/09/20 06:45:12;;;;;;;10.73;2.22;;;;;;;;;;5079484;28;20050;-65
2023/09/20 06:47:40;;;;;;;6.78;2.22;;;;;;;;;;5080152;28;20123;-64
2023/09/20 06:50:08;;;;;;;4.18;1.90;;;;;;;;;;5086355;28;20040;-64
2023/09/20 06:52:37;;;;;;;4.32;2.10;;;;;;;;;;5089769;28;20048;-65
2023/09/20 06:55:04;;;;;;;8.27;2.03;;;;;;;;;;5083634;28;20658;-65
2023/09/20 06:57:31;;;;;;;6.05;1.90;;;;;;;;;;5088970;28;20510;-64
2023/09/20 06:59:59;;;;;;;4.97;1.73;;;;;;;;;;5084767;28;20067;-65
2023/09/20 07:02:26;;;;;;;6.72;1.75;;;;;;;;;;5081271;28;20051;-65
2023/09/20 07:04:55;;;;;;;5.00;1.90;;;;;;;;;;5080721;28;20051;-65
2023/09/20 07:07:25;;;;;;;7.13;1.85;;;;;;;;;;5084641;28;20059;-65
2023/09/20 07:09:53;;;;;;;5.18;2.15;;;;;;;;;;5083926;28;20115;-65
2023/09/20 07:12:21;;;;;;;8.27;2.38;;;;;;;;;;5088535;28;20051;-65
2023/09/20 07:14:49;;;;;;;7.72;2.13;;;;;;;;;;5080411;28;20044;-65
2023/09/20 07:17:17;;;;;;;7.28;1.98;;;;;;;;;;5086168;28;20113;-65
2023/09/20 07:19:47;;;;;;;6.28;2.20;;;;;;;;;;5079931;28;20109;-65
2023/09/20 07:22:14;;;;;;;4.97;1.80;;;;;;;;;;5079934;28;20043;-65
2023/09/20 07:24:45;;;;;;;7.60;2.22;;;;;;;;;;5085004;28;20516;-65
2023/09/20 07:27:14;;;;;;;7.88;1.98;;;;;;;;;;5084875;28;20043;-65
2023/09/20 07:29:41;;;;;;;7.15;1.92;;;;;;;;;;5080400;28;20415;-65
2023/09/20 07:32:11;;;;;;;5.15;1.85;;;;;;;;;;5083617;28;20047;-65
2023/09/20 07:34:38;;;;;;;9.52;2.50;;;;;;;;;;5088362;28;20491;-66
2023/09/20 07:37:07;;;;;;;7.93;1.98;;;;;;;;;;5085706;28;20055;-65
2023/09/20 07:39:34;;;;;;;5.97;1.88;;;;;;;;;;5083112;28;20053;-66
2023/09/20 07:42:02;;;;;;;4.38;2.05;;;;;;;;;;5083466;28;20054;-65
2023/09/20 07:44:31;;;;;;;9.35;2.33;;;;;;;;;;5081803;28;20142;-66
2023/09/20 07:46:59;;;;;;;6.45;2.00;;;;;;;;;;5085449;28;20055;-66
2023/09/20 07:49:26;;;;;;;4.05;1.70;;;;;;;;;;5070167;28;20135;-65
2023/09/20 07:51:54;;;;;;;4.78;1.90;;;;;;;;;;5088809;28;20499;-66
2023/09/20 07:54:21;;;;;;;6.25;2.08;;;;;;;;;;5069845;28;20053;-66
2023/09/20 07:56:52;;;;;;;6.10;1.70;;;;;;;;;;5069733;28;20048;-65
2023/09/20 07:59:23;;;;;;;5.60;2.00;;;;;;;;;;5081049;28;20628;-66
2023/09/20 08:01:52;;;;;;;10.30;2.10;;;;;;;;;;5087457;28;20051;-66
2023/09/20 08:04:19;;;;;;;9.30;2.10;;;;;;;;;;5084637;28;20043;-66
2023/09/20 08:06:48;;;;;;;5.15;1.92;;;;;;;;;;5085604;28;20059;-66
2023/09/20 08:09:15;;;;;;;5.38;2.10;;;;;;;;;;5080457;28;20080;-66
2023/09/20 08:11:42;;;;;;;7.63;2.03;;;;;;;;;;5089135;28;20044;-65
2023/09/20 08:14:09;;;;;;;11.43;2.22;;;;;;;;;;5083609;28;20058;-65
2023/09/20 08:16:37;;;;;;;6.65;2.33;;;;;;;;;;5082152;28;20045;-65
2023/09/20 08:19:10;;;;;;;8.48;2.15;;;;;;;;;;5092648;28;20055;-67
2023/09/20 08:21:39;;;;;;;4.82;2.30;;;;;;;;;;5092945;28;20051;-65
2023/09/20 09:00:19;;;;;;;9.25;2.10;;;;;;;;;;5083629;28;20040;-65
2023/09/20 09:02:48;;;;;;;5.47;2.20;;;;;;;;;;5078497;28;20051;-66
2023/09/20 09:05:16;;;;;;;5.32;2.10;;;;;;;;;;5085435;28;20471;-65
2023/09/20 09:07:44;;;;;;;6.82;2.33;;;;;;;;;;5088499;28;20090;-66
2023/09/20 09:10:13;;;;;;;6.20;2.08;;;;;;;;;;5092184;28;20052;-66
2023/09/20 09:12:41;;;;;;;3.53;1.88;;;;;;;;;;5094061;28;20113;-65
2023/09/20 09:15:09;;;;;;;4.15;1.90;;;;;;;;;;5075847;28;20538;-66
2023/09/20 09:17:40;;;;;;;5.93;1.95;;;;;;;;;;5087266;28;20044;-66
2023/09/20 09:20:10;;;;;;;6.30;2.05;;;;;;;;;;5081260;28;20114;-66
2023/09/20 09:22:37;;;;;;;4.25;1.70;;;;;;;;;;5091713;28;20497;-66
2023/09/20 09:25:11;;;;;;;3.90;1.58;;;;;;;;;;5091753;28;20052;-66
2023/09/20 09:27:39;;;;;;;4.93;1.70;;;;;;;;;;5089149;28;20048;-66
2023/09/20 09:30:07;;;;;;;8.50;1.70;;;;;;;;;;5087941;28;20643;-66
2023/09/20 09:32:36;;;;;;;4.28;1.90;;;;;;;;;;5081600;28;20439;-66
2023/09/20 09:35:06;;;;;;;5.53;1.90;;;;;;;;;;5070888;28;20063;-66
2023/09/20 09:37:33;;;;;;;5.20;2.00;;;;;;;;;;5074665;28;20577;-66
2023/09/20 09:40:00;;;;;;;5.35;1.90;;;;;;;;;;5084360;28;20454;-66
2023/09/20 09:42:29;;;;;;;6.43;1.95;;;;;;;;;;5088453;28;20498;-66
2023/09/20 09:44:56;;;;;;;5.72;1.90;;;;;;;;;;5085193;28;20048;-66
2023/09/20 09:47:24;;;;;;;4.65;1.83;;;;;;;;;;5085122;28;20492;-66
2023/09/20 09:49:53;;;;;;;3.55;1.50;;;;;;;;;;5085109;28;20051;-66
2023/09/20 09:52:23;;;;;;;2.90;1.42;;;;;;;;;;5089225;28;20051;-66
2023/09/20 09:54:50;;;;;;;4.20;1.60;;;;;;;;;;5088645;28;20059;-66
2023/09/20 09:57:18;;;;;;;3.55;1.48;;;;;;;;;;5083694;28;20060;-66
2023/09/20 09:59:47;;;;;;;3.10;1.35;;;;;;;;;;5086156;28;20522;-66
2023/09/20 10:02:17;;;;;;;2.03;1.35;;;;;;;;;;5085379;28;20048;-66
2023/09/20 10:04:46;;;;;;;4.15;1.50;;;;;;;;;;5089507;28;20052;-66
2023/09/20 10:07:16;;;;;;;3.28;1.58;;;;;;;;;;5084846;28;20048;-66
2023/09/20 10:09:44;;;;;;;4.07;1.80;;;;;;;;;;5088878;28;20395;-66
2023/09/20 10:12:12;;;;;;;3.75;1.75;;;;;;;;;;5090852;28;20111;-66
2023/09/20 10:14:40;;;;;;;3.10;1.50;;;;;;;;;;5088468;28;20055;-66
2023/09/20 10:17:08;;;;;;;3.72;1.63;;;;;;;;;;5080877;28;20055;-66
2023/09/20 10:19:38;;;;;;;2.75;1.50;;;;;;;;;;5085319;28;20070;-65
2023/09/20 10:22:09;;;;;;;4.47;1.98;;;;;;;;;;5076298;28;20129;-66
2023/09/20 10:24:45;;;;;;;3.05;1.60;;;;;;;;;;5081650;28;20050;-65
2023/09/20 10:27:17;;;;;;;4.20;1.80;;;;;;;;;;5089139;28;20141;-66
2023/09/20 10:29:59;;;;;;;5.05;1.90;;;;;;;;;;5090751;28;20051;-66
2023/09/20 10:32:32;;;;;;;2.67;1.58;;;;;;;;;;5080974;28;20078;-65
2023/09/20 10:35:19;;;;;;;3.63;1.67;;;;;;;;;;5087999;28;20499;-66
2023/09/20 10:37:58;;;;;;;4.00;2.00;;;;;;;;;;5090669;28;20045;-66
2023/09/20 10:40:55;;;;;;;11.32;2.50;;;;;;;;;;5081849;28;20072;-66
2023/09/20 10:43:25;;;;;;;4.10;1.90;;;;;;;;;;5066692;28;20048;-65
2023/09/20 10:45:53;;;;;;;8.75;1.95;;;;;;;;;;5084658;28;20135;-66
2023/09/20 10:48:24;;;;;;;4.40;1.88;;;;;;;;;;5085482;28;20051;-66
2023/09/20 10:50:52;;;;;;;4.40;1.90;;;;;;;;;;5087109;28;20048;-65
2023/09/20 10:53:22;;;;;;;7.35;1.90;;;;;;;;;;5086209;28;20044;-66
2023/09/20 10:55:50;;;;;;;4.85;1.63;;;;;;;;;;5087576;28;20052;-66
2023/09/20 10:58:18;;;;;;;3.40;1.90;;;;;;;;;;5088457;28;20056;-66
2023/09/20 11:00:46;;;;;;;6.47;1.80;;;;;;;;;;5084460;28;20049;-66
2023/09/20 11:03:13;;;;;;;4.85;1.60;;;;;;;;;;5089735;28;20079;-66
2023/09/20 11:05:42;;;;;;;5.63;2.42;;;;;;;;;;5082718;28;20055;-66
2023/09/20 11:08:11;;;;;;;8.07;1.88;;;;;;;;;;5088732;28;20072;-67
2023/09/20 11:10:40;;;;;;;6.22;2.03;;;;;;;;;;5088640;28;20073;-66
2023/09/20 11:13:08;;;;;;;3.15;1.58;;;;;;;;;;5092118;28;20442;-66
2023/09/20 11:15:41;;;;;;;2.72;1.80;;;;;;;;;;5089337;28;20043;-66
2023/09/20 11:18:09;;;;;;;3.33;1.70;;;;;;;;;;5083774;28;20518;-66
2023/09/20 11:20:37;;;;;;;3.08;1.77;;;;;;;;;;5079359;28;20083;-66
2023/09/20 11:23:06;;;;;;;4.30;2.10;;;;;;;;;;5071442;28;20453;-66
2023/09/20 11:25:34;;;;;;;3.45;1.60;;;;;;;;;;5071003;28;20444;-66
2023/09/20 11:28:01;;;;;;;4.22;1.70;;;;;;;;;;5087840;28;20052;-66
2023/09/20 11:30:28;;;;;;;3.67;2.05;;;;;;;;;;5090496;28;20058;-66
2023/09/20 11:32:56;;;;;;;3.28;1.90;;;;;;;;;;5088808;28;20146;-66
2023/09/20 11:35:33;;;;;;;5.30;1.80;;;;;;;;;;5087279;28;20135;-66
2023/09/20 11:38:00;;;;;;;6.22;2.00;;;;;;;;;;5077337;28;20072;-66
2023/09/20 11:40:31;;;;;;;3.70;1.67;;;;;;;;;;5063298;28;20052;-66
2023/09/20 11:42:59;;;;;;;5.35;2.38;;;;;;;;;;5089032;28;20242;-66
2023/09/20 11:45:28;;;;;;;5.03;2.10;;;;;;;;;;5085018;28;20810;-66
2023/09/20 11:47:55;;;;;;;4.93;2.05;;;;;;;;;;5085663;28;20051;-65
2023/09/20 11:50:24;;;;;;;4.78;2.05;;;;;;;;;;5086722;28;20081;-66
2023/09/20 11:52:53;;;;;;;6.20;1.80;;;;;;;;;;5088118;28;20131;-66
2023/09/20 11:55:21;;;;;;;7.47;2.28;;;;;;;;;;5084576;28;20049;-65
2023/09/20 11:57:52;;;;;;;4.15;1.80;;;;;;;;;;5076664;28;20088;-65
2023/09/20 12:00:20;;;;;;;4.05;2.10;;;;;;;;;;5079662;28;20052;-66
2023/09/20 12:02:48;;;;;;;4.32;2.33;;;;;;;;;;5079717;28;20048;-65
2023/09/20 12:05:17;;;;;;;5.43;2.00;;;;;;;;;;5087029;28;20109;-66
2023/09/20 12:07:54;;;;;;;4.05;1.85;;;;;;;;;;5087203;28;20518;-66
2023/09/20 12:10:21;;;;;;;10.35;2.42;;;;;;;;;;5089391;28;20044;-66
2023/09/20 12:12:48;;;;;;;6.03;2.40;;;;;;;;;;5088434;28;20072;-65
2023/09/20 12:15:17;;;;;;;6.57;2.67;;;;;;;;;;5085990;28;20037;-65
2023/09/20 12:17:45;;;;;;;5.82;2.25;;;;;;;;;;5074154;28;20063;-67
2023/09/20 12:20:12;;;;;;;5.07;2.30;;;;;;;;;;5081220;28;20745;-66
2023/09/20 12:22:40;;;;;;;6.45;2.38;;;;;;;;;;5080716;28;20476;-66
2023/09/20 12:25:07;;;;;;;5.13;2.20;;;;;;;;;;5082463;28;20045;-66
2023/09/20 12:27:35;;;;;;;5.38;2.08;;;;;;;;;;5085275;28;20480;-66
2023/09/20 12:30:04;;;;;;;4.38;2.10;;;;;;;;;;5086803;28;20041;-66
2023/09/20 12:32:33;;;;;;;7.53;2.00;;;;;;;;;;5087482;28;20067;-66
2023/09/20 12:35:00;;;;;;;5.18;2.10;;;;;;;;;;5082771;28;20052;-65
2023/09/20 12:37:28;;;;;;;7.78;2.05;;;;;;;;;;5086633;28;20055;-66
2023/09/20 12:39:56;;;;;;;8.15;2.22;;;;;;;;;;5088733;28;20040;-67
2023/09/20 12:42:24;;;;;;;5.85;2.60;;;;;;;;;;5082049;28;20463;-66
2023/09/20 12:44:51;;;;;;;6.57;2.30;;;;;;;;;;5083790;28;20048;-66
2023/09/20 12:47:19;;;;;;;3.33;1.75;;;;;;;;;;5087517;28;20040;-66
2023/09/20 12:49:48;;;;;;;3.22;1.85;;;;;;;;;;5078859;28;20136;-66
2023/09/20 12:52:17;;;;;;;7.03;2.10;;;;;;;;;;5084681;28;20043;-66
2023/09/20 12:54:44;;;;;;;4.53;1.98;;;;;;;;;;5087347;28;20053;-66
2023/09/20 12:57:12;;;;;;;9.55;1.92;;;;;;;;;;5086133;28;20070;-65
2023/09/20 12:59:39;;;;;;;6.60;2.22;;;;;;;;;;5083060;28;20344;-66
2023/09/20 13:02:08;;;;;;;6.45;2.15;;;;;;;;;;5063833;28;20051;-66
2023/09/20 13:04:35;;;;;;;3.97;1.85;;;;;;;;;;5083898;28;20479;-66
2023/09/20 13:07:04;;;;;;;3.45;2.17;;;;;;;;;;5085449;28;20048;-65
2023/09/20 13:09:32;;;;;;;3.50;1.92;;;;;;;;;;5083272;28;20094;-66
2023/09/20 13:11:59;;;;;;;4.55;2.35;;;;;;;;;;5087805;28;20044;-66
2023/09/20 13:14:26;;;;;;;5.10;1.80;;;;;;;;;;5080901;28;20044;-66
2023/09/20 13:16:54;;;;;;;6.75;2.00;;;;;;;;;;5087411;28;20059;-65
2023/09/20 13:19:21;;;;;;;2.97;1.90;;;;;;;;;;5087933;28;20044;-66
2023/09/20 13:21:48;;;;;;;6.53;2.08;;;;;;;;;;5089969;28;20052;-66
2023/09/20 13:24:17;;;;;;;7.35;2.08;;;;;;;;;;5089419;28;20067;-66
2023/09/20 13:26:44;;;;;;;4.35;1.90;;;;;;;;;;5090098;28;20055;-66
2023/09/20 13:29:13;;;;;;;9.27;2.55;;;;;;;;;;5072322;28;20062;-66
2023/09/20 13:31:41;;;;;;;5.32;2.05;;;;;;;;;;5080242;28;20198;-66
2023/09/20 13:34:14;;;;;;;5.90;2.17;;;;;;;;;;5082928;28;20072;-66
2023/09/20 13:36:44;;;;;;;7.80;2.33;;;;;;;;;;5087595;28;20064;-66
2023/09/20 13:39:11;;;;;;;8.85;2.70;;;;;;;;;;5089039;28;20051;-66
2023/09/20 13:41:40;;;;;;;3.63;2.10;;;;;;;;;;5087394;28;20049;-66
2023/09/20 13:44:08;;;;;;;4.35;2.25;;;;;;;;;;5079013;28;20081;-67
2023/09/20 13:46:38;;;;;;;4.63;1.98;;;;;;;;;;5085743;28;20484;-66
2023/09/20 13:49:06;;;;;;;6.38;2.80;;;;;;;;;;5090315;28;20071;-66
2023/09/20 13:51:33;;;;;;;6.60;2.40;;;;;;;;;;5091737;28;20048;-65
2023/09/20 13:54:00;;;;;;;3.03;1.77;;;;;;;;;;5080002;28;20515;-65
2023/09/20 13:56:29;;;;;;;6.57;2.20;;;;;;;;;;5088735;28;20056;-66
2023/09/20 13:58:58;;;;;;;4.57;2.03;;;;;;;;;;5085133;28;20392;-66
2023/09/20 14:01:27;;;;;;;7.50;2.60;;;;;;;;;;5084910;28;20040;-66
2023/09/20 14:03:54;;;;;;;5.50;2.13;;;;;;;;;;5084835;28;20130;-66
2023/09/20 14:06:22;;;;;;;3.53;2.00;;;;;;;;;;5085142;28;20043;-66
2023/09/20 14:08:49;;;;;;;5.68;2.22;;;;;;;;;;5082786;28;20051;-66
2023/09/20 14:11:17;;;;;;;5.82;2.30;;;;;;;;;;5085293;28;20047;-66
2023/09/20 14:13:44;;;;;;;7.82;2.17;;;;;;;;;;5085111;28;20055;-66
2023/09/20 14:16:14;;;;;;;3.28;1.90;;;;;;;;;;5088304;28;20048;-66
2023/09/20 14:18:42;;;;;;;8.27;2.13;;;;;;;;;;5075569;28;20191;-66
2023/09/20 14:21:09;;;;;;;6.32;2.15;;;;;;;;;;5083970;28;20056;-65
2023/09/20 14:23:37;;;;;;;5.18;2.15;;;;;;;;;;5059591;28;20579;-66
2023/09/20 14:26:10;;;;;;;3.90;2.00;;;;;;;;;;5087387;28;20147;-65
2023/09/20 14:28:37;;;;;;;4.50;1.92;;;;;;;;;;5092586;28;20048;-65
2023/09/20 14:31:05;;;;;;;5.05;2.38;;;;;;;;;;5085786;28;20048;-66
2023/09/20 14:33:34;;;;;;;3.45;1.75;;;;;;;;;;5091216;28;20054;-65
2023/09/20 14:36:03;;;;;;;5.40;2.13;;;;;;;;;;5089809;28;20051;-65
2023/09/20 14:38:31;;;;;;;3.92;1.90;;;;;;;;;;5090405;28;20044;-66
2023/09/20 14:40:59;;;;;;;6.05;2.17;;;;;;;;;;5084116;28;20483;-66
2023/09/20 14:43:26;;;;;;;4.25;2.00;;;;;;;;;;5087675;28;20048;-65
2023/09/20 14:45:53;;;;;;;6.68;2.65;;;;;;;;;;5089244;28;20052;-66
2023/09/20 14:48:22;;;;;;;3.58;1.92;;;;;;;;;;5085108;28;20102;-65
2023/09/20 14:50:50;;;;;;;7.35;2.00;;;;;;;;;;5091315;28;20499;-66
2023/09/20 14:53:18;;;;;;;5.60;1.98;;;;;;;;;;5083428;28;20044;-65
2023/09/20 14:55:46;;;;;;;4.60;2.00;;;;;;;;;;5090087;28;20101;-66
2023/09/20 14:58:13;;;;;;;6.45;2.35;;;;;;;;;;5088929;28;20051;-65
2023/09/20 15:00:41;;;;;;;7.53;1.88;;;;;;;;;;5087410;28;20062;-66
2023/09/20 15:03:11;;;;;;;5.70;2.20;;;;;;;;;;5089490;28;20091;-65
2023/09/20 15:05:38;;;;;;;5.00;2.03;;;;;;;;;;5084042;28;20055;-66
2023/09/20 15:08:08;;;;;;;4.13;1.73;;;;;;;;;;5079559;28;20500;-65
2023/09/20 15:10:36;;;;;;;3.95;2.00;;;;;;;;;;5080653;28;20048;-65
2023/09/20 15:13:03;;;;;;;4.65;2.30;;;;;;;;;;5070999;28;20052;-66
2023/09/20 15:15:32;;;;;;;6.45;2.00;;;;;;;;;;5089403;28;20055;-66
2023/09/20 15:17:59;;;;;;;4.35;2.05;;;;;;;;;;5090935;28;20554;-66
2023/09/20 15:20:27;;;;;;;5.55;2.33;;;;;;;;;;5089256;28;20158;-65
2023/09/20 15:22:55;;;;;;;4.65;2.10;;;;;;;;;;5089786;28;20131;-65